Iron Mountain, Michigan
Current Conditions -  °F | °C
As of 2:54 PM on Saturday 22 Nov 2014 (Local Time) from KIMT Reporting Station
Few Clouds Few Clouds  
Wind Chill: 31°   Ceiling: Unl
Heat Index: 37°   Visibility: 8mi
Dew Point: 30°   Wind: 8mph
Humidity: 76%   Direction: 250°WSW
Pressure: 29.69"   Gusts: NA
Location:  45.82°N, 88.06°W
Report Text: KIMT 222054Z AUTO 25007KT 8SM FEW017 03/M01 A2969 RMK AO2 SLP068 T00281011 58002
Loading
Personal Weather Stations






























Interactive Weather Map New forecast layout! Learn more

10-Day Weather Forecast

Advertisements
Track Severe Weather on mobile